createdAt,value
2018-03-15T00:01:14.429Z,5.70
2018-03-15T00:03:41.889Z,5.70
2018-03-15T00:06:09.373Z,5.70
2018-03-15T00:08:37.657Z,5.70
2018-03-15T00:11:05.900Z,5.70
2018-03-15T00:13:33.356Z,5.70
2018-03-15T00:16:00.868Z,5.70
2018-03-15T00:18:28.346Z,5.70
2018-03-15T00:20:55.835Z,5.70
2018-03-15T00:23:23.289Z,5.60
2018-03-15T00:25:50.781Z,5.70
2018-03-15T00:28:19.389Z,5.60
2018-03-15T00:30:46.864Z,5.50
2018-03-15T00:33:14.344Z,5.60
2018-03-15T00:35:41.842Z,5.60
2018-03-15T00:38:10.075Z,5.50
2018-03-15T00:40:37.588Z,5.50
2018-03-15T00:43:05.055Z,5.50
2018-03-15T00:45:32.536Z,5.50
2018-03-15T00:48:00.020Z,5.40
2018-03-15T00:50:27.496Z,5.40
2018-03-15T00:52:55.748Z,5.40
2018-03-15T00:55:23.225Z,5.40
2018-03-15T00:57:51.458Z,5.40
2018-03-15T01:00:18.948Z,5.40
2018-03-15T01:02:46.417Z,5.40
2018-03-15T01:05:14.690Z,5.40
2018-03-15T01:07:42.937Z,5.40
2018-03-15T01:10:10.459Z,5.40
2018-03-15T01:12:37.917Z,5.40
2018-03-15T01:15:05.404Z,5.30
2018-03-15T01:17:32.870Z,5.30
2018-03-15T01:20:00.346Z,5.30
2018-03-15T01:22:28.584Z,5.20
2018-03-15T01:24:56.063Z,5.20
2018-03-15T01:27:23.577Z,5.20
2018-03-15T01:29:51.065Z,5.20
2018-03-15T01:32:18.528Z,5.10
2018-03-15T01:34:46.024Z,5.10
2018-03-15T01:37:14.249Z,5.10
2018-03-15T01:39:41.734Z,5.10
2018-03-15T01:42:09.960Z,5.10
2018-03-15T01:44:37.442Z,5.10
2018-03-15T01:47:04.913Z,5.10
2018-03-15T01:49:32.398Z,5.10
2018-03-15T01:52:00.642Z,5.00
2018-03-15T01:54:28.166Z,5.00
2018-03-15T01:56:55.632Z,5.00
2018-03-15T01:59:23.113Z,5.00
2018-03-15T02:01:50.573Z,5.00
2018-03-15T02:04:18.049Z,5.00
2018-03-15T02:06:46.285Z,4.90
2018-03-15T02:09:13.770Z,4.90
2018-03-15T02:11:41.228Z,5.00
2018-03-15T02:14:08.688Z,4.90
2018-03-15T02:16:36.170Z,4.90
2018-03-15T02:19:04.418Z,4.80
2018-03-15T02:21:33.459Z,4.80
2018-03-15T02:24:00.924Z,4.80
2018-03-15T02:26:28.400Z,4.80
2018-03-15T02:28:55.857Z,4.80
2018-03-15T02:31:23.348Z,4.80
2018-03-15T02:33:50.840Z,4.80
2018-03-15T02:36:18.333Z,4.70
2018-03-15T02:38:45.794Z,4.70
2018-03-15T02:41:13.276Z,4.80
2018-03-15T02:43:41.511Z,4.70
2018-03-15T02:46:08.986Z,4.70
2018-03-15T02:48:36.455Z,4.80
2018-03-15T02:51:03.939Z,4.70
2018-03-15T02:53:32.156Z,4.70
2018-03-15T02:55:59.646Z,4.70
2018-03-15T02:58:27.145Z,4.70
2018-03-15T03:00:54.636Z,4.70
2018-03-15T03:03:22.105Z,4.70
2018-03-15T03:05:49.588Z,4.70
2018-03-15T03:08:17.083Z,4.70
2018-03-15T03:10:45.325Z,4.70
2018-03-15T03:13:13.548Z,4.70
2018-03-15T03:15:41.041Z,4.70
2018-03-15T03:18:08.508Z,4.60
2018-03-15T03:20:36.004Z,4.60
2018-03-15T03:23:03.469Z,4.60
2018-03-15T03:25:30.948Z,4.60
2018-03-15T03:27:58.404Z,4.60
2018-03-15T03:30:25.930Z,4.60
2018-03-15T03:32:53.395Z,4.60
2018-03-15T03:35:20.876Z,4.60
2018-03-15T03:37:48.338Z,4.60
2018-03-15T03:40:15.829Z,4.60
2018-03-15T03:42:43.286Z,4.50
2018-03-15T03:45:11.529Z,4.50
2018-03-15T03:47:38.984Z,4.50
2018-03-15T03:50:06.467Z,4.50
2018-03-15T03:52:33.934Z,4.50
2018-03-15T03:55:02.176Z,4.40
2018-03-15T03:57:29.636Z,4.40
2018-03-15T03:59:57.121Z,4.40
2018-03-15T04:02:24.577Z,4.40
2018-03-15T04:04:52.064Z,4.40
2018-03-15T04:07:19.521Z,4.40
2018-03-15T04:09:47.005Z,4.40
2018-03-15T04:12:14.476Z,4.40
2018-03-15T04:14:41.953Z,4.40
2018-03-15T04:17:09.425Z,4.40
2018-03-15T04:19:37.652Z,4.40
2018-03-15T04:22:05.148Z,4.30
2018-03-15T04:24:32.611Z,4.40
2018-03-15T04:27:00.185Z,4.30
2018-03-15T04:29:28.413Z,4.30
2018-03-15T04:31:55.940Z,4.30
2018-03-15T04:34:23.500Z,4.30
2018-03-15T04:36:50.984Z,4.30
2018-03-15T04:39:18.440Z,4.30
2018-03-15T04:41:45.925Z,4.30
2018-03-15T04:44:13.429Z,4.30
2018-03-15T04:46:40.912Z,4.30
2018-03-15T04:49:08.372Z,4.20
2018-03-15T04:51:35.855Z,4.20
2018-03-15T04:54:03.317Z,4.20
2018-03-15T04:56:30.824Z,4.20
2018-03-15T04:58:58.311Z,4.20
2018-03-15T05:01:25.784Z,4.20
2018-03-15T05:03:53.237Z,4.20
2018-03-15T05:06:20.713Z,4.20
2018-03-15T05:08:48.949Z,4.20
2018-03-15T05:11:16.437Z,4.10
2018-03-15T05:13:43.892Z,4.20
2018-03-15T05:16:12.155Z,4.10
2018-03-15T05:18:39.619Z,4.10
2018-03-15T05:21:07.109Z,4.10
2018-03-15T05:23:34.573Z,4.10
2018-03-15T05:26:02.053Z,4.10
2018-03-15T05:28:29.553Z,4.10
2018-03-15T05:30:57.033Z,4.10
2018-03-15T05:33:25.273Z,4.10
2018-03-15T05:35:52.754Z,4.00
2018-03-15T05:38:20.984Z,4.10
2018-03-15T05:40:48.454Z,4.00
2018-03-15T05:43:15.951Z,4.10
2018-03-15T05:45:44.200Z,4.10
2018-03-15T05:48:11.673Z,4.10
2018-03-15T05:50:39.931Z,4.10
2018-03-15T05:53:07.406Z,4.00
2018-03-15T05:55:35.653Z,4.10
2018-03-15T05:58:03.113Z,4.10
2018-03-15T06:00:30.585Z,4.10
2018-03-15T06:02:58.049Z,4.20
2018-03-15T06:05:25.530Z,4.10
2018-03-15T06:07:53.756Z,4.20
2018-03-15T06:10:21.232Z,4.20
2018-03-15T06:12:48.697Z,4.20
2018-03-15T06:15:16.173Z,4.20
2018-03-15T06:17:44.409Z,4.30
2018-03-15T06:20:11.909Z,4.30
2018-03-15T06:22:39.486Z,4.40
2018-03-15T06:25:06.945Z,4.40
2018-03-15T06:27:34.430Z,4.40
2018-03-15T06:30:01.905Z,4.40
2018-03-15T06:32:29.414Z,4.40
2018-03-15T06:34:56.865Z,4.40
2018-03-15T06:37:24.349Z,4.50
2018-03-15T06:39:51.814Z,4.50
2018-03-15T06:42:19.288Z,4.50
2018-03-15T06:44:46.744Z,4.50
2018-03-15T06:47:14.988Z,4.50
2018-03-15T06:49:42.456Z,4.50
2018-03-15T06:52:09.991Z,4.60
2018-03-15T06:54:38.184Z,4.60
2018-03-15T06:57:05.680Z,4.60
2018-03-15T06:59:33.163Z,4.60
2018-03-15T07:02:01.408Z,4.70
2018-03-15T07:04:30.585Z,4.80
2018-03-15T07:06:58.114Z,4.80
2018-03-15T07:09:25.573Z,4.90
2018-03-15T07:11:53.053Z,4.90
2018-03-15T07:14:20.587Z,5.00
2018-03-15T07:16:48.081Z,5.10
2018-03-15T07:19:15.543Z,5.20
2018-03-15T07:24:11.697Z,5.30
2018-03-15T07:26:39.181Z,5.30
2018-03-15T07:29:07.445Z,5.50
2018-03-15T07:31:35.685Z,5.50
2018-03-15T07:34:03.150Z,5.50
2018-03-15T07:36:30.638Z,5.60
2018-03-15T07:38:58.869Z,5.70
2018-03-15T07:41:26.347Z,5.70
2018-03-15T07:43:53.965Z,5.80
2018-03-15T07:46:21.440Z,5.80
2018-03-15T07:48:48.910Z,5.90
2018-03-15T07:51:16.407Z,5.90
2018-03-15T07:53:44.659Z,5.90
2018-03-15T07:56:12.917Z,6.00
2018-03-15T07:58:40.383Z,5.90
2018-03-15T08:01:07.876Z,6.00
2018-03-15T08:03:36.101Z,5.90
2018-03-15T08:06:03.576Z,5.90
2018-03-15T08:08:31.036Z,5.90
2018-03-15T08:10:58.953Z,6.00
2018-03-15T08:13:26.510Z,6.00
2018-03-15T08:15:53.990Z,6.00
2018-03-15T08:18:21.472Z,6.10
2018-03-15T08:20:50.478Z,6.30
2018-03-15T08:23:17.941Z,6.30
2018-03-15T08:25:46.189Z,6.40
2018-03-15T08:28:13.652Z,6.40
2018-03-15T08:30:41.121Z,6.50
2018-03-15T08:33:08.597Z,6.60
2018-03-15T08:35:36.824Z,6.50
2018-03-15T08:38:04.318Z,6.50
2018-03-15T08:40:31.779Z,6.60
2018-03-15T08:43:00.020Z,6.70
2018-03-15T08:45:27.480Z,6.70
2018-03-15T08:47:54.954Z,6.80
2018-03-15T08:50:22.427Z,6.80
2018-03-15T08:52:50.680Z,7.00
2018-03-15T08:55:18.144Z,7.00
2018-03-15T08:57:45.625Z,7.10
2018-03-15T09:00:13.916Z,7.20
2018-03-15T09:02:41.344Z,7.20
2018-03-15T09:05:09.565Z,7.40
2018-03-15T09:07:37.040Z,7.30
2018-03-15T09:10:04.501Z,7.50
2018-03-15T09:12:31.991Z,7.50
2018-03-15T09:14:59.449Z,7.60
2018-03-15T09:17:27.694Z,7.70
2018-03-15T09:19:55.148Z,7.80
2018-03-15T09:22:22.617Z,7.80
2018-03-15T09:24:50.083Z,7.90
2018-03-15T09:27:17.570Z,7.90
2018-03-15T09:29:45.035Z,8.00
2018-03-15T09:32:12.529Z,8.20
2018-03-15T09:34:40.009Z,8.20
2018-03-15T09:37:07.493Z,8.30
2018-03-15T09:39:35.078Z,8.30
2018-03-15T09:42:02.571Z,8.30
2018-03-15T09:44:30.054Z,8.40
2018-03-15T09:46:58.313Z,8.50
2018-03-15T09:49:25.789Z,8.50
2018-03-15T09:51:54.036Z,8.80
2018-03-15T09:54:21.505Z,8.70
2018-03-15T09:56:49.000Z,8.80
2018-03-15T09:59:16.474Z,8.90
2018-03-15T10:01:43.961Z,9.00
2018-03-15T10:04:11.437Z,9.00
2018-03-15T10:06:38.925Z,9.10
2018-03-15T10:09:06.402Z,9.20
2018-03-15T10:11:33.888Z,9.20
2018-03-15T10:14:01.349Z,9.30
2018-03-15T10:16:28.854Z,9.40
2018-03-15T10:18:56.326Z,9.40
2018-03-15T10:21:23.809Z,9.50
2018-03-15T10:23:51.275Z,9.50
2018-03-15T10:26:18.764Z,9.60
2018-03-15T10:28:47.004Z,9.70
2018-03-15T10:31:14.492Z,9.70
2018-03-15T10:33:42.765Z,9.80
2018-03-15T10:36:11.001Z,9.90
2018-03-15T10:38:38.490Z,9.80
2018-03-15T10:41:05.980Z,9.90
2018-03-15T10:43:33.465Z,10.10
2018-03-15T10:46:00.939Z,10.20
2018-03-15T10:48:28.445Z,10.20
2018-03-15T10:50:56.694Z,10.30
2018-03-15T10:53:24.168Z,10.30
2018-03-15T10:55:52.403Z,10.40
2018-03-15T10:58:19.901Z,10.40
2018-03-15T11:00:53.819Z,10.50
2018-03-15T11:03:27.707Z,10.50
2018-03-15T11:06:00.978Z,10.50
2018-03-15T11:08:28.469Z,10.50
2018-03-15T11:10:56.706Z,10.60
2018-03-15T11:13:24.208Z,10.50
2018-03-15T11:15:52.444Z,10.70
2018-03-15T11:18:19.935Z,10.60
2018-03-15T11:20:48.164Z,10.80
2018-03-15T11:23:15.654Z,10.80
2018-03-15T11:25:43.133Z,10.90
2018-03-15T11:28:11.384Z,11.00
2018-03-15T11:30:38.862Z,11.00
2018-03-15T11:33:07.115Z,11.00
2018-03-15T11:35:34.586Z,11.00
2018-03-15T11:38:02.839Z,11.00
2018-03-15T11:40:30.326Z,11.00
2018-03-15T11:42:58.588Z,11.10
2018-03-15T11:45:26.914Z,11.20
2018-03-15T11:47:54.402Z,11.20
2018-03-15T11:50:21.873Z,11.20
2018-03-15T11:52:49.380Z,11.20
2018-03-15T11:55:16.901Z,11.20
2018-03-15T11:57:44.345Z,11.30
2018-03-15T12:00:11.818Z,11.30
2018-03-15T12:02:40.074Z,11.40
2018-03-15T12:05:07.545Z,11.40
2018-03-15T12:07:35.101Z,11.30
2018-03-15T12:10:02.607Z,11.30
2018-03-15T12:12:30.092Z,11.40
2018-03-15T12:14:57.562Z,11.40
2018-03-15T12:17:25.105Z,11.30
2018-03-15T12:19:52.591Z,11.30
2018-03-15T12:22:20.077Z,11.40
2018-03-15T12:24:48.308Z,11.40
2018-03-15T12:27:15.791Z,11.40
2018-03-15T12:29:43.245Z,11.40
2018-03-15T12:32:10.731Z,11.50
2018-03-15T12:34:38.201Z,11.40
2018-03-15T12:37:05.696Z,11.40
2018-03-15T12:39:33.153Z,11.50
2018-03-15T12:42:00.633Z,11.50
2018-03-15T12:44:28.094Z,11.50
2018-03-15T12:46:56.340Z,11.50
2018-03-15T12:49:23.814Z,11.50
2018-03-15T12:51:51.298Z,11.60
2018-03-15T12:54:19.556Z,11.70
2018-03-15T12:56:47.050Z,11.70
2018-03-15T12:59:14.521Z,11.80
2018-03-15T13:01:42.000Z,11.80
2018-03-15T13:04:09.472Z,11.80
2018-03-15T13:06:36.946Z,11.80
2018-03-15T13:09:04.442Z,11.90
2018-03-15T13:11:31.937Z,11.90
2018-03-15T13:13:59.517Z,11.90
2018-03-15T13:16:26.980Z,12.10
2018-03-15T13:18:55.226Z,12.20
2018-03-15T13:21:22.696Z,12.20
2018-03-15T13:23:50.198Z,12.30
2018-03-15T13:26:17.653Z,12.40
2018-03-15T13:28:45.141Z,12.40
2018-03-15T13:31:12.592Z,12.40
2018-03-15T13:33:40.071Z,12.50
2018-03-15T13:36:07.537Z,12.50
2018-03-15T13:38:35.022Z,12.60
2018-03-15T13:41:03.254Z,12.60
2018-03-15T13:43:30.730Z,12.60
2018-03-15T13:45:58.204Z,12.70
2018-03-15T13:48:26.479Z,12.60
2018-03-15T13:50:53.918Z,12.60
2018-03-15T13:53:21.394Z,12.60
2018-03-15T13:55:49.617Z,12.60
2018-03-15T13:58:17.092Z,12.60
2018-03-15T14:00:44.588Z,12.60
2018-03-15T14:03:12.837Z,12.70
2018-03-15T14:05:40.302Z,12.70
2018-03-15T14:08:07.785Z,12.60
2018-03-15T14:10:36.038Z,12.70
2018-03-15T14:13:03.508Z,12.70
2018-03-15T14:15:31.748Z,12.70
2018-03-15T14:17:59.224Z,12.60
2018-03-15T14:20:26.680Z,12.60
2018-03-15T14:22:54.159Z,12.60
2018-03-15T14:25:22.381Z,12.70
2018-03-15T14:27:49.857Z,12.70
2018-03-15T14:30:17.316Z,12.60
2018-03-15T14:32:44.788Z,12.60
2018-03-15T14:35:12.249Z,12.60
2018-03-15T14:37:40.497Z,12.60
2018-03-15T14:40:07.952Z,12.60
2018-03-15T14:42:35.437Z,12.50
2018-03-15T14:45:02.894Z,12.50
2018-03-15T14:47:30.372Z,12.50
2018-03-15T14:49:58.602Z,12.50
2018-03-15T14:52:26.092Z,12.40
2018-03-15T14:54:54.326Z,12.50
2018-03-15T14:57:21.796Z,12.50
2018-03-15T14:59:49.289Z,12.50
2018-03-15T15:02:17.516Z,12.50
2018-03-15T15:04:44.993Z,12.50
2018-03-15T15:07:12.460Z,12.50
2018-03-15T15:09:39.942Z,12.50
2018-03-15T15:12:08.167Z,12.50
2018-03-15T15:14:35.672Z,12.50
2018-03-15T15:17:03.910Z,12.50
2018-03-15T15:19:31.425Z,12.50
2018-03-15T15:21:58.984Z,12.50
2018-03-15T15:24:26.473Z,12.50
2018-03-15T15:26:53.924Z,12.40
2018-03-15T15:29:21.409Z,12.50
2018-03-15T15:31:48.869Z,12.50
2018-03-15T15:34:16.357Z,12.40
2018-03-15T15:36:43.820Z,12.40
2018-03-15T15:39:11.300Z,12.40
2018-03-15T15:41:38.761Z,12.30
2018-03-15T15:44:06.245Z,12.30
2018-03-15T15:46:33.712Z,12.40
2018-03-15T15:49:01.190Z,12.30
2018-03-15T15:51:29.418Z,12.30
2018-03-15T15:53:56.947Z,12.30
2018-03-15T15:56:24.406Z,12.30
2018-03-15T15:58:51.929Z,12.20
2018-03-15T16:01:19.356Z,12.20
2018-03-15T16:03:46.845Z,12.20
2018-03-15T16:06:15.097Z,12.10
2018-03-15T16:08:42.588Z,12.20
2018-03-15T16:11:10.042Z,12.10
2018-03-15T16:13:38.312Z,12.10
2018-03-15T16:16:06.562Z,12.10
2018-03-15T16:18:34.039Z,12.10
2018-03-15T16:21:02.277Z,12.00
2018-03-15T16:23:29.748Z,12.00
2018-03-15T16:25:57.213Z,12.00
2018-03-15T16:28:24.682Z,12.00
2018-03-15T16:30:52.169Z,12.00
2018-03-15T16:33:19.665Z,11.90
2018-03-15T16:35:47.149Z,11.90
2018-03-15T16:38:14.669Z,11.90
2018-03-15T16:40:42.137Z,11.90
2018-03-15T16:43:09.638Z,11.90
2018-03-15T16:45:37.898Z,11.90
2018-03-15T16:48:05.412Z,11.80
2018-03-15T16:50:32.875Z,11.90
2018-03-15T16:53:00.370Z,11.90
2018-03-15T16:55:27.876Z,11.80
2018-03-15T16:57:55.378Z,11.80
2018-03-15T17:00:22.887Z,11.80
2018-03-15T17:02:50.375Z,11.80
2018-03-15T17:05:17.854Z,11.80
2018-03-15T17:07:45.313Z,11.80
2018-03-15T17:10:12.844Z,11.80
2018-03-15T17:12:40.368Z,11.80
2018-03-15T17:15:09.703Z,11.80
2018-03-15T17:17:37.202Z,11.80
2018-03-15T17:20:04.649Z,11.70
2018-03-15T17:22:32.113Z,11.60
2018-03-15T17:24:59.640Z,11.60
2018-03-15T17:27:27.118Z,11.60
2018-03-15T17:29:54.811Z,11.60
2018-03-15T17:32:23.054Z,11.60
2018-03-15T17:34:50.533Z,11.50
2018-03-15T17:37:18.018Z,11.50
2018-03-15T17:39:45.548Z,11.50
2018-03-15T17:42:13.841Z,11.40
2018-03-15T17:44:41.340Z,11.40
2018-03-15T17:47:08.802Z,11.40
2018-03-15T17:49:36.288Z,11.30
2018-03-15T17:52:03.758Z,11.30
2018-03-15T17:54:31.235Z,11.40
2018-03-15T17:56:59.472Z,11.30
2018-03-15T17:59:26.944Z,11.30
2018-03-15T18:01:54.536Z,11.30
2018-03-15T18:04:22.797Z,11.20
2018-03-15T18:06:50.304Z,11.20
2018-03-15T18:09:17.853Z,11.20
2018-03-15T18:11:45.393Z,11.20
2018-03-15T18:14:13.678Z,11.10
2018-03-15T18:16:41.914Z,11.10
2018-03-15T18:19:13.251Z,11.00
2018-03-15T18:21:41.526Z,11.00
2018-03-15T18:24:08.999Z,11.00
2018-03-15T18:26:36.459Z,11.00
2018-03-15T18:29:03.936Z,11.00
2018-03-15T18:31:32.156Z,10.90
2018-03-15T18:33:59.629Z,10.90
2018-03-15T18:36:27.094Z,10.90
2018-03-15T18:38:54.582Z,10.80
2018-03-15T18:41:22.051Z,10.80
2018-03-15T18:43:49.542Z,10.80
2018-03-15T18:46:17.018Z,10.60
2018-03-15T18:48:44.497Z,10.70
2018-03-15T18:51:11.969Z,10.60
2018-03-15T18:53:40.214Z,10.60
2018-03-15T18:56:07.688Z,10.50
2018-03-15T18:58:35.197Z,10.60
2018-03-15T19:01:02.669Z,10.60
2018-03-15T19:03:30.165Z,10.50
2018-03-15T19:05:58.423Z,10.60
2018-03-15T19:08:25.940Z,10.60
2018-03-15T19:10:53.425Z,10.60
2018-03-15T19:13:21.013Z,10.60
2018-03-15T19:15:49.270Z,10.50
2018-03-15T19:18:16.736Z,10.50
2018-03-15T19:20:44.227Z,10.50
2018-03-15T19:23:12.468Z,10.50
2018-03-15T19:25:40.737Z,10.50
2018-03-15T19:28:08.213Z,10.50
2018-03-15T19:30:35.724Z,10.50
2018-03-15T19:33:03.203Z,10.50
2018-03-15T19:35:30.701Z,10.50
2018-03-15T19:37:58.933Z,10.50
2018-03-15T19:40:26.418Z,10.50
2018-03-15T19:42:53.881Z,10.50
2018-03-15T19:45:22.134Z,10.40
2018-03-15T19:47:49.630Z,10.40
2018-03-15T19:50:17.888Z,10.50
2018-03-15T19:52:45.387Z,10.40
2018-03-15T19:55:12.897Z,10.40
2018-03-15T19:57:40.373Z,10.40
2018-03-15T20:00:08.631Z,10.40
2018-03-15T20:02:36.105Z,10.40
2018-03-15T20:05:04.405Z,10.30
2018-03-15T20:07:31.881Z,10.40
2018-03-15T20:09:59.379Z,10.30
2018-03-15T20:12:26.863Z,10.30
2018-03-15T20:14:55.100Z,10.30
2018-03-15T20:17:22.567Z,10.30
2018-03-15T20:19:50.047Z,10.20
2018-03-15T20:22:24.030Z,10.20
2018-03-15T20:24:51.561Z,10.20
2018-03-15T20:27:24.767Z,10.20
2018-03-15T20:29:52.268Z,10.20
2018-03-15T20:32:28.782Z,10.10
2018-03-15T20:34:56.268Z,10.10
2018-03-15T20:37:23.743Z,10.00
2018-03-15T20:39:57.694Z,10.00
2018-03-15T20:42:25.163Z,10.00
2018-03-15T20:44:52.917Z,10.00
2018-03-15T20:50:21.162Z,9.90
2018-03-15T20:52:49.408Z,9.80
2018-03-15T20:55:16.889Z,9.80
2018-03-15T20:57:44.361Z,9.90
2018-03-15T21:00:12.616Z,9.70
2018-03-15T21:02:40.081Z,9.70
2018-03-15T21:05:08.330Z,9.70
2018-03-15T21:07:35.788Z,9.70
2018-03-15T21:10:03.261Z,9.70
2018-03-15T21:12:30.725Z,9.60
2018-03-15T21:14:58.967Z,9.60
2018-03-15T21:17:26.431Z,9.60
2018-03-15T21:19:53.919Z,9.60
2018-03-15T21:22:22.143Z,9.60
2018-03-15T21:24:49.622Z,9.60
2018-03-15T21:27:17.165Z,9.60
2018-03-15T21:29:44.581Z,9.60
2018-03-15T21:32:12.804Z,9.60
2018-03-15T21:34:40.302Z,9.60
2018-03-15T21:37:08.551Z,9.60
2018-03-15T21:39:36.028Z,9.60
2018-03-15T21:42:03.522Z,9.60
2018-03-15T21:44:31.020Z,9.50
2018-03-15T21:46:58.506Z,9.50
2018-03-15T21:49:26.813Z,9.60
2018-03-15T21:51:54.325Z,9.50
2018-03-15T21:54:21.776Z,9.50
2018-03-15T21:56:49.261Z,9.50
2018-03-15T21:59:17.497Z,9.50
2018-03-15T22:01:44.976Z,9.50
2018-03-15T22:04:12.455Z,9.50
2018-03-15T22:06:40.713Z,9.40
2018-03-15T22:09:08.182Z,9.40
2018-03-15T22:11:36.433Z,9.50
2018-03-15T22:14:03.910Z,9.50
2018-03-15T22:16:32.168Z,9.40
2018-03-15T22:18:59.637Z,9.40
2018-03-15T22:21:27.140Z,9.40
2018-03-15T22:23:54.693Z,9.40
2018-03-15T22:26:22.176Z,9.40
2018-03-15T22:28:49.637Z,9.40
2018-03-15T22:31:17.118Z,9.40
2018-03-15T22:33:44.607Z,9.40
2018-03-15T22:36:12.865Z,9.40
2018-03-15T22:38:41.134Z,9.40
2018-03-15T22:41:08.626Z,9.40
2018-03-15T22:43:36.109Z,9.40
2018-03-15T22:46:03.590Z,9.30
2018-03-15T22:48:31.052Z,9.30
2018-03-15T22:50:58.627Z,9.30
2018-03-15T22:53:26.861Z,9.30
2018-03-15T22:55:54.351Z,9.30
2018-03-15T22:58:21.827Z,9.40
2018-03-15T23:00:50.088Z,9.20
2018-03-15T23:03:17.572Z,9.20
2018-03-15T23:05:45.072Z,9.20
2018-03-15T23:08:12.534Z,9.20
2018-03-15T23:10:40.019Z,9.20
2018-03-15T23:13:07.486Z,9.20
2018-03-15T23:15:35.725Z,9.10
2018-03-15T23:18:03.188Z,9.10
2018-03-15T23:20:30.693Z,9.10
2018-03-15T23:22:58.177Z,9.00
2018-03-15T23:25:25.669Z,9.00
2018-03-15T23:27:53.909Z,8.90
2018-03-15T23:30:21.398Z,8.90
2018-03-15T23:32:48.861Z,8.90
2018-03-15T23:35:16.346Z,8.80
2018-03-15T23:37:44.740Z,8.70
2018-03-15T23:40:12.219Z,8.70
2018-03-15T23:42:39.689Z,8.70
2018-03-15T23:45:07.171Z,8.60
2018-03-15T23:47:34.652Z,8.60
2018-03-15T23:50:02.897Z,8.50
2018-03-15T23:52:30.368Z,8.50
2018-03-15T23:54:57.840Z,8.40
2018-03-15T23:57:26.085Z,8.40
2018-03-15T23:59:53.553Z,8.30
